Time;durP1;ratioP1;P1;durP2;ratioP2;P2;SDS_P1;SDS_P2;PMS_P1;PMS_P2;Temp;Humidity;BMP_temperature;BMP_pressure;BME280_temperature;BME280_humidity;BME280_pressure;Samples;Min_cycle;Max_cycle;Signal;HPM_P1;HPM_P2
2022/07/27 00:00:30;;;;;;;7.15;1.85;;;14.00;99.90;;;;;;4983381;28;20576;-57
2022/07/27 00:02:56;;;;;;;6.22;1.40;;;13.80;99.90;;;;;;4984145;28;20045;-56
2022/07/27 00:05:22;;;;;;;6.05;1.67;;;13.70;99.90;;;;;;4999590;28;20042;-56
2022/07/27 00:07:48;;;;;;;6.93;1.67;;;13.80;99.90;;;;;;5012668;28;20041;-56
2022/07/27 00:10:14;;;;;;;4.85;1.60;;;13.60;99.90;;;;;;5001948;28;20052;-56
2022/07/27 00:12:40;;;;;;;6.13;1.77;;;13.50;99.90;;;;;;4983450;28;20152;-57
2022/07/27 00:15:07;;;;;;;5.85;1.60;;;13.50;99.90;;;;;;5001396;28;20104;-57
2022/07/27 00:17:33;;;;;;;9.27;1.80;;;13.40;99.90;;;;;;5001517;28;20054;-57
2022/07/27 00:19:58;;;;;;;7.22;1.92;;;13.30;99.90;;;;;;5001470;28;20052;-57
2022/07/27 00:22:24;;;;;;;4.57;1.50;;;13.30;99.90;;;;;;5000593;28;20056;-56
2022/07/27 00:24:50;;;;;;;5.43;1.70;;;13.20;99.90;;;;;;5002153;28;20417;-56
2022/07/27 00:27:15;;;;;;;8.20;1.88;;;13.20;99.90;;;;;;4983789;28;20465;-56
2022/07/27 00:29:41;;;;;;;6.53;1.90;;;13.10;99.90;;;;;;4983376;28;20058;-54
2022/07/27 00:32:07;;;;;;;6.32;1.80;;;13.10;99.90;;;;;;5000857;28;20394;-56
2022/07/27 00:34:34;;;;;;;8.85;2.13;;;13.20;99.90;;;;;;5001285;28;20048;-57
2022/07/27 00:36:59;;;;;;;5.07;1.90;;;13.30;99.90;;;;;;5001646;28;20042;-56
2022/07/27 00:39:25;;;;;;;4.70;1.83;;;13.30;99.90;;;;;;5000634;28;20137;-57
2022/07/27 00:41:51;;;;;;;6.03;1.75;;;13.30;99.90;;;;;;5000588;28;20528;-57
2022/07/27 00:44:27;;;;;;;4.10;1.52;;;13.40;99.90;;;;;;5000466;28;20113;-55
2022/07/27 00:46:53;;;;;;;8.85;2.30;;;13.40;99.90;;;;;;5001396;28;20429;-56
2022/07/27 00:49:19;;;;;;;5.03;2.10;;;13.40;99.90;;;;;;4982327;28;20053;-56
2022/07/27 00:51:45;;;;;;;5.88;1.85;;;13.50;99.90;;;;;;5001561;28;20493;-56
2022/07/27 00:54:11;;;;;;;7.15;1.77;;;13.50;99.90;;;;;;5001509;28;20045;-56
2022/07/27 00:56:36;;;;;;;7.65;1.80;;;13.50;99.90;;;;;;4983235;28;20057;-57
2022/07/27 00:59:04;;;;;;;6.65;1.92;;;13.50;99.90;;;;;;5000063;28;20129;-56
2022/07/27 01:01:30;;;;;;;7.57;1.48;;;13.60;99.90;;;;;;5000681;28;20046;-56
2022/07/27 01:03:56;;;;;;;4.20;1.75;;;13.70;99.90;;;;;;5001172;28;20378;-56
2022/07/27 01:06:21;;;;;;;6.53;1.48;;;13.70;99.90;;;;;;5002527;28;20034;-57
2022/07/27 01:08:47;;;;;;;4.00;1.60;;;13.70;99.90;;;;;;5009124;28;20400;-56
2022/07/27 01:11:14;;;;;;;6.95;1.83;;;13.80;99.90;;;;;;5001125;28;20050;-56
2022/07/27 01:13:42;;;;;;;7.13;1.90;;;13.80;99.90;;;;;;5000173;28;20054;-54
2022/07/27 01:16:08;;;;;;;8.93;1.55;;;13.90;99.90;;;;;;4999499;28;20752;-56
2022/07/27 01:18:36;;;;;;;7.28;1.83;;;13.80;99.90;;;;;;4966074;28;20359;-57
2022/07/27 01:21:05;;;;;;;7.70;1.92;;;13.90;99.90;;;;;;5000668;28;20061;-56
2022/07/27 01:23:31;;;;;;;7.50;1.65;;;13.90;99.90;;;;;;5000247;28;20054;-57
2022/07/27 01:25:57;;;;;;;7.68;1.50;;;13.80;99.90;;;;;;4999833;28;20130;-56
2022/07/27 01:28:23;;;;;;;5.43;1.60;;;13.70;99.90;;;;;;5000259;28;20045;-57
2022/07/27 01:30:49;;;;;;;4.57;1.63;;;13.80;99.90;;;;;;4999953;28;20049;-57
2022/07/27 01:33:14;;;;;;;8.55;1.80;;;13.80;99.90;;;;;;5000569;28;20077;-56
2022/07/27 01:35:40;;;;;;;6.13;1.60;;;13.70;99.90;;;;;;5000125;28;20413;-57
2022/07/27 01:38:08;;;;;;;7.45;2.17;;;13.70;99.90;;;;;;5000345;28;20552;-57
2022/07/27 01:40:35;;;;;;;6.35;1.70;;;13.70;99.90;;;;;;5000057;28;20046;-56
2022/07/27 01:43:01;;;;;;;6.82;1.80;;;13.60;99.90;;;;;;5000170;28;20057;-56
2022/07/27 01:45:27;;;;;;;7.28;1.85;;;13.50;99.90;;;;;;4999307;28;20061;-57
2022/07/27 01:47:53;;;;;;;8.10;1.92;;;13.50;99.90;;;;;;5000182;28;20071;-56
2022/07/27 01:50:19;;;;;;;6.07;1.60;;;13.50;99.90;;;;;;4999783;28;20050;-56
2022/07/27 01:52:44;;;;;;;6.05;1.63;;;13.50;99.90;;;;;;5000102;28;20045;-57
2022/07/27 01:55:11;;;;;;;6.65;2.22;;;13.40;99.90;;;;;;5000173;28;20124;-56
2022/07/27 01:57:37;;;;;;;6.38;1.95;;;13.20;99.90;;;;;;5000174;28;20050;-57
2022/07/27 02:00:06;;;;;;;4.97;1.63;;;13.40;99.90;;;;;;4999656;28;20049;-56
2022/07/27 02:02:32;;;;;;;7.20;1.90;;;13.30;99.90;;;;;;4999455;28;20129;-57
2022/07/27 02:04:57;;;;;;;4.85;1.70;;;13.30;99.90;;;;;;5000081;28;20141;-56
2022/07/27 02:07:23;;;;;;;5.30;1.70;;;13.40;99.90;;;;;;5008548;28;20685;-57
2022/07/27 02:09:48;;;;;;;7.72;1.70;;;13.40;99.90;;;;;;4999198;28;20050;-57
2022/07/27 02:14:58;;;;;;;6.55;1.83;;;13.30;99.90;;;;;;4999412;28;20042;-56
2022/07/27 02:17:24;;;;;;;7.18;2.08;;;13.30;99.90;;;;;;4999448;28;20057;-57
2022/07/27 02:19:49;;;;;;;6.97;2.13;;;13.20;99.90;;;;;;4999156;28;20038;-57
2022/07/27 02:22:15;;;;;;;5.95;1.80;;;13.10;99.90;;;;;;5000537;28;20492;-56
2022/07/27 02:24:41;;;;;;;7.30;1.70;;;13.10;99.90;;;;;;4998902;28;20208;-53
2022/07/27 02:27:07;;;;;;;5.90;1.70;;;13.00;99.90;;;;;;4999837;28;20121;-55
2022/07/27 02:29:33;;;;;;;6.82;2.40;;;13.00;99.90;;;;;;5001864;28;20049;-58
2022/07/27 02:31:58;;;;;;;6.90;1.98;;;12.90;99.90;;;;;;5003767;28;20508;-56
2022/07/27 02:34:24;;;;;;;8.50;2.30;;;12.80;99.90;;;;;;4985599;28;20684;-56
2022/07/27 02:36:49;;;;;;;10.02;2.47;;;12.80;99.90;;;;;;5003926;28;20435;-57
2022/07/27 02:39:15;;;;;;;7.05;1.85;;;12.80;99.90;;;;;;5003202;28;20604;-57
2022/07/27 02:41:41;;;;;;;8.50;2.30;;;12.70;99.90;;;;;;5003610;28;20673;-57
2022/07/27 02:44:06;;;;;;;7.00;1.90;;;12.70;99.90;;;;;;5002605;28;20042;-56
2022/07/27 02:46:32;;;;;;;6.07;1.67;;;12.60;99.90;;;;;;5003161;28;20046;-56
2022/07/27 02:48:58;;;;;;;6.88;2.10;;;12.60;99.90;;;;;;5002913;28;20041;-56
2022/07/27 02:51:23;;;;;;;9.82;2.00;;;12.60;99.90;;;;;;5002671;28;20050;-57
2022/07/27 02:53:49;;;;;;;6.50;2.25;;;12.50;99.90;;;;;;5003591;28;20064;-57
2022/07/27 02:56:14;;;;;;;13.55;2.13;;;12.50;99.90;;;;;;5003929;28;20077;-56
2022/07/27 02:58:40;;;;;;;5.65;1.80;;;12.50;99.90;;;;;;4984292;28;20349;-57
2022/07/27 03:01:06;;;;;;;5.20;2.20;;;12.50;99.90;;;;;;5003015;28;20052;-57
2022/07/27 03:03:32;;;;;;;7.88;2.20;;;12.50;99.90;;;;;;5002800;28;20069;-57
2022/07/27 03:05:58;;;;;;;6.47;1.83;;;12.50;99.90;;;;;;5005419;28;20200;-56
2022/07/27 03:08:23;;;;;;;9.57;1.98;;;12.50;99.90;;;;;;5010907;28;20056;-56
2022/07/27 03:10:49;;;;;;;6.32;1.75;;;12.60;99.90;;;;;;5002725;28;20042;-57
2022/07/27 03:13:14;;;;;;;8.00;2.28;;;12.60;99.90;;;;;;5002160;28;20054;-57
2022/07/27 03:15:40;;;;;;;7.40;1.90;;;12.60;99.90;;;;;;4985097;28;20140;-57
2022/07/27 03:18:06;;;;;;;7.50;2.20;;;12.60;99.90;;;;;;5002564;28;20050;-57
2022/07/27 03:20:31;;;;;;;7.63;2.30;;;12.60;99.90;;;;;;5002720;28;20568;-57
2022/07/27 03:22:57;;;;;;;3.65;1.70;;;12.60;99.90;;;;;;4984967;28;20053;-56
2022/07/27 03:25:23;;;;;;;7.13;2.00;;;12.60;99.90;;;;;;5002393;28;20086;-56
2022/07/27 03:27:49;;;;;;;6.95;2.33;;;12.60;99.90;;;;;;5002846;28;20125;-57
2022/07/27 03:30:15;;;;;;;7.20;2.10;;;12.60;99.90;;;;;;5001735;28;20038;-56
2022/07/27 03:32:41;;;;;;;6.78;1.77;;;12.60;99.90;;;;;;4968931;28;20137;-57
2022/07/27 03:35:07;;;;;;;6.60;2.10;;;12.50;99.90;;;;;;5002198;28;20129;-55
2022/07/27 03:37:33;;;;;;;9.40;2.08;;;12.40;99.90;;;;;;5002529;28;20120;-57
2022/07/27 03:39:58;;;;;;;6.22;1.83;;;12.30;99.90;;;;;;5001355;28;20432;-56
2022/07/27 03:42:24;;;;;;;9.20;2.30;;;12.40;99.90;;;;;;4984277;28;20143;-57
2022/07/27 03:44:50;;;;;;;5.03;2.17;;;12.30;99.90;;;;;;5000930;28;20048;-57
2022/07/27 03:47:17;;;;;;;10.27;2.30;;;12.30;99.90;;;;;;5001729;28;20080;-56
2022/07/27 03:49:42;;;;;;;7.28;2.25;;;12.10;99.90;;;;;;4985202;28;20088;-56
2022/07/27 03:52:08;;;;;;;7.72;2.03;;;12.10;99.90;;;;;;4984571;28;20493;-56
2022/07/27 03:54:34;;;;;;;6.57;2.50;;;12.00;99.90;;;;;;5001799;28;20089;-57
2022/07/27 03:57:01;;;;;;;7.10;2.28;;;12.00;99.90;;;;;;5002371;28;20061;-56
2022/07/27 03:59:27;;;;;;;6.07;2.20;;;12.10;99.90;;;;;;5000917;28;20287;-57
2022/07/27 04:01:53;;;;;;;5.00;1.80;;;12.00;99.90;;;;;;5001869;28;20122;-57
2022/07/27 04:04:18;;;;;;;6.78;2.05;;;12.00;99.90;;;;;;5000949;28;20046;-57
2022/07/27 04:06:44;;;;;;;6.28;2.10;;;12.00;99.90;;;;;;5006671;28;20046;-57
2022/07/27 04:09:10;;;;;;;9.10;2.40;;;12.10;99.90;;;;;;5008823;28;20176;-56
2022/07/27 04:11:36;;;;;;;5.53;2.20;;;12.10;99.90;;;;;;5001316;28;20038;-57
2022/07/27 04:14:02;;;;;;;7.85;2.00;;;12.10;99.90;;;;;;5000201;28;20064;-57
2022/07/27 04:16:28;;;;;;;5.35;2.35;;;12.10;99.90;;;;;;5001456;28;20050;-56
2022/07/27 04:18:54;;;;;;;9.15;2.13;;;12.10;99.90;;;;;;5002481;28;20048;-56
2022/07/27 04:21:19;;;;;;;5.90;2.25;;;12.10;99.90;;;;;;5001576;28;20076;-56
2022/07/27 04:23:45;;;;;;;7.43;2.40;;;12.10;99.90;;;;;;5001582;28;20497;-56
2022/07/27 04:26:11;;;;;;;6.72;2.38;;;12.00;99.90;;;;;;5002132;28;20405;-56
2022/07/27 04:28:36;;;;;;;3.85;1.75;;;12.10;99.90;;;;;;5000944;28;20160;-57
2022/07/27 04:31:02;;;;;;;6.25;2.45;;;12.20;99.90;;;;;;5001084;28;20041;-57
2022/07/27 04:33:28;;;;;;;6.78;2.15;;;12.20;99.90;;;;;;5000865;28;20053;-56
2022/07/27 04:35:54;;;;;;;7.53;2.38;;;12.20;99.90;;;;;;5001881;28;20038;-57
2022/07/27 04:38:20;;;;;;;7.70;2.30;;;12.20;99.90;;;;;;5000930;28;20661;-57
2022/07/27 04:40:45;;;;;;;7.60;2.40;;;12.30;99.90;;;;;;5001555;28;20056;-57
2022/07/27 04:43:11;;;;;;;7.80;2.40;;;12.30;99.90;;;;;;5000499;28;20042;-56
2022/07/27 04:45:37;;;;;;;8.65;2.47;;;12.40;99.90;;;;;;5001098;28;20515;-57
2022/07/27 04:48:06;;;;;;;4.88;2.17;;;12.40;99.90;;;;;;5001016;28;20161;-56
2022/07/27 04:50:38;;;;;;;7.75;3.00;;;12.50;99.90;;;;;;4982596;28;20057;-58
2022/07/27 04:53:03;;;;;;;7.60;2.28;;;12.60;99.90;;;;;;5001212;28;20077;-57
2022/07/27 04:55:29;;;;;;;5.60;2.30;;;13.00;99.90;;;;;;5000855;28;20092;-56
2022/07/27 04:57:55;;;;;;;5.45;1.92;;;13.50;99.90;;;;;;5000653;28;20042;-57
2022/07/27 05:00:20;;;;;;;6.57;1.80;;;14.00;99.90;;;;;;4999944;28;20038;-57
2022/07/27 05:02:46;;;;;;;5.95;2.13;;;14.30;99.90;;;;;;5000784;28;20045;-57
2022/07/27 05:05:12;;;;;;;3.38;1.90;;;14.50;99.90;;;;;;4983855;28;20045;-56
2022/07/27 05:07:37;;;;;;;7.43;2.08;;;14.50;99.90;;;;;;5011906;28;20150;-57
2022/07/27 05:10:03;;;;;;;7.63;2.33;;;14.70;99.90;;;;;;5000285;28;20531;-57
2022/07/27 05:12:29;;;;;;;6.18;1.80;;;14.50;99.90;;;;;;5000116;28;20080;-56
2022/07/27 05:14:55;;;;;;;7.50;2.25;;;14.30;99.90;;;;;;5000396;28;20049;-57
2022/07/27 05:17:20;;;;;;;6.28;2.15;;;14.10;99.90;;;;;;5000531;28;20061;-57
2022/07/27 05:19:47;;;;;;;9.05;2.22;;;14.10;99.90;;;;;;5000100;28;20074;-56
2022/07/27 05:22:12;;;;;;;7.25;2.10;;;13.90;99.90;;;;;;5001372;28;20080;-57
2022/07/27 05:24:38;;;;;;;10.73;2.50;;;13.70;99.90;;;;;;5000863;28;20057;-55
2022/07/27 05:27:05;;;;;;;5.72;2.17;;;13.60;99.90;;;;;;5000377;28;20096;-56
2022/07/27 05:29:31;;;;;;;6.22;2.35;;;13.60;99.90;;;;;;4998724;28;20060;-57
2022/07/27 05:31:56;;;;;;;7.07;2.38;;;13.50;99.90;;;;;;5000357;28;20603;-56
2022/07/27 05:34:22;;;;;;;6.28;2.45;;;13.50;99.90;;;;;;5000483;28;20092;-57
2022/07/27 05:36:48;;;;;;;6.28;2.60;;;13.60;99.90;;;;;;5001129;28;20427;-57
2022/07/27 05:39:13;;;;;;;7.97;2.70;;;13.60;99.90;;;;;;4999993;28;20076;-56
2022/07/27 05:41:39;;;;;;;5.65;2.38;;;13.60;99.90;;;;;;4982702;28;20069;-57
2022/07/27 05:44:04;;;;;;;7.60;2.40;;;13.70;99.90;;;;;;4999800;28;20360;-57
2022/07/27 05:46:32;;;;;;;6.25;2.78;;;13.80;99.90;;;;;;4982384;28;20050;-57
2022/07/27 05:48:58;;;;;;;9.73;2.38;;;13.80;99.90;;;;;;5000019;28;20045;-56
2022/07/27 05:51:24;;;;;;;7.35;2.55;;;13.90;99.90;;;;;;4999667;28;20046;-57
2022/07/27 05:53:50;;;;;;;7.05;2.40;;;14.00;99.90;;;;;;5000346;28;20119;-56
2022/07/27 05:56:15;;;;;;;9.43;2.20;;;14.00;99.90;;;;;;4999631;28;20046;-56
2022/07/27 05:58:41;;;;;;;5.68;1.95;;;14.10;99.90;;;;;;4999679;28;20119;-56
2022/07/27 06:01:06;;;;;;;10.70;2.92;;;14.10;99.90;;;;;;5000190;28;20642;-56
2022/07/27 06:03:32;;;;;;;6.22;1.95;;;14.20;99.90;;;;;;5002263;28;20055;-57
2022/07/27 06:08:43;;;;;;;7.40;2.63;;;14.20;99.90;;;;;;5004652;28;20042;-55
2022/07/27 06:11:09;;;;;;;7.30;1.92;;;14.20;99.90;;;;;;5003748;28;20584;-56
2022/07/27 06:13:35;;;;;;;6.22;2.08;;;14.30;99.90;;;;;;5002193;28;20177;-58
2022/07/27 06:16:02;;;;;;;7.47;2.13;;;14.50;99.90;;;;;;5004011;28;20559;-58
2022/07/27 06:18:28;;;;;;;6.55;1.88;;;14.50;99.90;;;;;;5003762;28;20437;-57
2022/07/27 06:20:54;;;;;;;4.13;1.95;;;14.60;99.90;;;;;;5004260;28;20037;-57
2022/07/27 06:23:19;;;;;;;7.70;2.50;;;14.60;99.90;;;;;;5002876;28;20042;-57
2022/07/27 06:25:45;;;;;;;4.93;1.80;;;14.60;99.90;;;;;;5004356;28;20543;-57
2022/07/27 06:28:11;;;;;;;6.70;2.47;;;14.70;99.90;;;;;;5003671;28;20050;-57
2022/07/27 06:30:36;;;;;;;6.85;2.13;;;14.70;99.90;;;;;;5003714;28;20107;-57
2022/07/27 06:33:05;;;;;;;8.82;2.47;;;14.80;99.90;;;;;;5003212;28;20207;-58
2022/07/27 06:35:31;;;;;;;7.18;1.75;;;14.90;99.90;;;;;;5003423;28;20256;-56
2022/07/27 06:37:57;;;;;;;11.43;2.13;;;15.20;99.90;;;;;;5003592;28;20056;-56
2022/07/27 06:40:23;;;;;;;6.57;2.10;;;15.80;99.90;;;;;;5002951;28;20054;-56
2022/07/27 06:42:48;;;;;;;7.85;1.83;;;16.60;99.90;;;;;;4984543;28;20050;-57
2022/07/27 06:45:15;;;;;;;8.18;2.00;;;17.10;99.90;;;;;;5003556;28;20344;-56
2022/07/27 06:47:41;;;;;;;6.32;1.90;;;17.20;99.90;;;;;;5003789;28;20365;-56
2022/07/27 06:50:07;;;;;;;5.97;1.98;;;17.70;99.90;;;;;;5003269;28;20097;-55
2022/07/27 06:52:33;;;;;;;7.65;1.13;;;16.90;99.90;;;;;;5002995;28;20044;-57
2022/07/27 06:54:58;;;;;;;5.55;1.63;;;17.20;99.90;;;;;;5003349;28;20653;-57
2022/07/27 06:57:24;;;;;;;6.35;1.52;;;17.80;99.90;;;;;;5003084;28;20037;-57
2022/07/27 06:59:49;;;;;;;7.63;1.63;;;18.20;99.90;;;;;;5002425;28;20081;-56
2022/07/27 07:02:18;;;;;;;5.15;1.65;;;18.60;99.90;;;;;;5003653;28;20937;-53
2022/07/27 07:04:44;;;;;;;10.85;1.88;;;18.70;99.90;;;;;;5003531;28;20080;-56
2022/07/27 07:07:09;;;;;;;4.70;1.13;;;18.40;99.90;;;;;;5010442;28;20528;-56
2022/07/27 07:09:35;;;;;;;7.57;2.00;;;18.90;99.90;;;;;;5005665;28;20798;-57
2022/07/27 07:12:01;;;;;;;7.07;1.63;;;18.80;99.90;;;;;;5002582;28;20488;-56
2022/07/27 07:14:27;;;;;;;6.65;1.55;;;18.70;99.90;;;;;;5001618;28;20038;-58
2022/07/27 07:16:53;;;;;;;5.60;1.50;;;18.40;99.90;;;;;;5002898;28;20247;-58
2022/07/27 07:19:19;;;;;;;6.15;1.63;;;18.50;99.90;;;;;;5001760;28;20441;-57
2022/07/27 07:21:45;;;;;;;9.88;1.95;;;18.60;99.90;;;;;;5003394;28;20052;-57
2022/07/27 07:24:12;;;;;;;10.25;1.52;;;19.00;99.90;;;;;;5003118;28;20050;-56
2022/07/27 07:26:38;;;;;;;7.25;1.42;;;19.10;99.90;;;;;;5002415;28;20049;-57
2022/07/27 07:29:04;;;;;;;5.55;1.20;;;18.90;99.90;;;;;;5001483;28;20042;-57
2022/07/27 07:31:31;;;;;;;7.50;1.42;;;18.60;99.90;;;;;;5002383;28;20499;-57
2022/07/27 07:33:58;;;;;;;7.53;1.40;;;18.20;99.90;;;;;;5002996;28;20080;-56
2022/07/27 07:36:24;;;;;;;3.38;1.00;;;18.60;99.90;;;;;;5002221;28;20129;-57
2022/07/27 07:38:50;;;;;;;8.85;1.50;;;19.10;99.90;;;;;;4984411;28;20092;-57
2022/07/27 07:41:16;;;;;;;7.45;1.55;;;19.50;99.90;;;;;;5001853;28;20459;-57
2022/07/27 07:43:41;;;;;;;5.57;1.45;;;19.60;99.90;;;;;;5002269;28;20054;-56
2022/07/27 07:46:07;;;;;;;4.45;1.10;;;20.20;99.90;;;;;;4984663;28;20061;-56
2022/07/27 07:48:33;;;;;;;8.55;1.80;;;19.90;99.90;;;;;;5001373;28;20050;-58
2022/07/27 07:50:59;;;;;;;5.90;1.30;;;19.80;99.90;;;;;;5001913;28;20030;-57
2022/07/27 07:53:25;;;;;;;5.95;1.52;;;19.20;99.90;;;;;;4984413;28;20091;-57
2022/07/27 07:55:54;;;;;;;5.07;1.25;;;19.00;99.90;;;;;;5001989;28;20188;-57
2022/07/27 07:58:20;;;;;;;5.38;1.38;;;18.70;99.90;;;;;;5000704;28;20057;-57
2022/07/27 08:00:46;;;;;;;8.00;1.73;;;18.10;99.90;;;;;;5002098;28;20041;-57
2022/07/27 08:03:12;;;;;;;7.95;1.20;;;18.30;99.90;;;;;;5002354;28;20045;-56
2022/07/27 08:05:38;;;;;;;7.05;1.17;;;18.40;99.90;;;;;;5001498;28;20052;-57
2022/07/27 08:08:03;;;;;;;5.90;1.15;;;18.60;99.90;;;;;;5012751;28;20062;-57
2022/07/27 08:10:29;;;;;;;3.42;1.10;;;19.20;99.90;;;;;;5001335;28;20133;-57
2022/07/27 08:12:56;;;;;;;5.15;1.30;;;18.90;99.90;;;;;;5001163;28;20069;-56
2022/07/27 08:15:22;;;;;;;6.93;1.27;;;18.80;99.90;;;;;;5001377;28;20065;-56
2022/07/27 08:17:48;;;;;;;4.93;1.10;;;18.80;99.90;;;;;;5001959;28;20054;-57
2022/07/27 08:20:14;;;;;;;5.55;1.35;;;18.70;99.90;;;;;;5001779;28;20044;-57
2022/07/27 08:22:41;;;;;;;9.30;1.40;;;18.40;99.90;;;;;;5001379;28;20080;-56
2022/07/27 08:25:08;;;;;;;5.47;1.40;;;18.10;99.90;;;;;;5000991;28;20042;-56
2022/07/27 08:27:34;;;;;;;4.50;1.48;;;17.40;99.90;;;;;;5000447;28;20060;-57
2022/07/27 08:30:00;;;;;;;5.82;1.80;;;17.10;99.90;;;;;;5001492;28;20129;-56
2022/07/27 08:32:27;;;;;;;5.20;1.50;;;17.00;99.90;;;;;;4983535;28;20481;-57
2022/07/27 08:34:54;;;;;;;6.03;1.50;;;16.90;99.90;;;;;;5000899;28;20049;-57
2022/07/27 08:37:19;;;;;;;6.22;1.63;;;16.70;99.90;;;;;;5001229;28;20052;-56
2022/07/27 08:39:45;;;;;;;6.18;1.48;;;16.60;99.90;;;;;;5001843;28;20128;-57
2022/07/27 08:42:11;;;;;;;8.30;1.83;;;16.50;99.90;;;;;;5001404;28;20049;-55
2022/07/27 08:44:39;;;;;;;4.53;1.60;;;16.60;99.90;;;;;;5000111;28;20037;-56
2022/07/27 08:47:05;;;;;;;7.07;1.50;;;16.70;99.90;;;;;;5001414;28;20045;-57
2022/07/27 08:49:31;;;;;;;6.55;1.40;;;16.80;99.90;;;;;;5000992;28;20107;-58
2022/07/27 08:51:57;;;;;;;5.60;1.30;;;17.00;99.90;;;;;;5000463;28;20052;-56
2022/07/27 08:54:24;;;;;;;8.07;1.70;;;17.30;99.90;;;;;;5000758;28;20046;-57
2022/07/27 08:56:50;;;;;;;6.20;1.45;;;17.40;99.90;;;;;;5001467;28;20054;-64
2022/07/27 08:59:16;;;;;;;6.25;1.60;;;17.50;99.90;;;;;;5000027;28;20494;-57
2022/07/27 09:01:42;;;;;;;6.32;1.40;;;17.40;99.90;;;;;;4982387;28;20269;-57
2022/07/27 09:04:08;;;;;;;19.75;2.35;;;17.60;99.90;;;;;;5000734;28;20488;-56
2022/07/27 09:06:48;;;;;;;11.00;1.42;;;17.70;99.90;;;;;;5003605;28;20095;-57
2022/07/27 09:09:16;;;;;;;5.20;0.90;;;18.00;99.90;;;;;;5006957;28;20053;-57
2022/07/27 09:11:42;;;;;;;6.25;1.30;;;18.30;99.90;;;;;;5001190;28;20069;-57
2022/07/27 09:14:11;;;;;;;3.75;1.00;;;18.20;99.90;;;;;;4999717;28;20038;-57
2022/07/27 09:16:37;;;;;;;4.38;0.90;;;18.60;99.90;;;;;;4982891;28;20053;-57
2022/07/27 09:19:09;;;;;;;5.50;0.98;;;18.60;99.90;;;;;;5000294;28;20424;-56
2022/07/27 09:21:36;;;;;;;3.20;1.08;;;18.70;99.90;;;;;;4999722;28;20037;-57
2022/07/27 09:24:15;;;;;;;4.60;1.15;;;19.00;99.90;;;;;;5000001;28;20050;-57
2022/07/27 09:26:42;;;;;;;4.82;1.23;;;19.10;99.90;;;;;;5000794;28;21210;-57
2022/07/27 09:29:13;;;;;;;6.63;1.30;;;19.10;99.90;;;;;;4982222;28;20089;-57
2022/07/27 09:31:48;;;;;;;5.75;0.95;;;19.20;99.90;;;;;;5000255;28;20077;-55
2022/07/27 09:34:25;;;;;;;;;;;19.40;99.90;;;;;;5001136;28;20042;-56
2022/07/27 09:36:53;;;;;;;4.43;0.90;;;19.10;99.90;;;;;;5000387;28;19913;-57
2022/07/27 09:39:20;;;;;;;4.90;1.10;;;19.00;99.90;;;;;;4999385;28;20077;-57
2022/07/27 09:41:47;;;;;;;4.75;0.93;;;19.20;99.90;;;;;;5000704;28;20489;-57
2022/07/27 09:44:14;;;;;;;2.55;0.75;;;19.50;99.90;;;;;;4999834;28;20096;-57
2022/07/27 09:46:42;;;;;;;4.32;0.70;;;19.80;99.90;;;;;;5000361;28;20049;-55
2022/07/27 09:49:29;;;;;;;6.65;1.10;;;20.00;99.90;;;;;;4999633;28;20121;-56
2022/07/27 09:51:56;;;;;;;4.10;0.88;;;19.90;99.90;;;;;;5000342;28;20045;-56
2022/07/27 09:54:24;;;;;;;3.45;1.10;;;20.20;99.90;;;;;;4999501;28;20235;-57
2022/07/27 09:57:00;;;;;;;3.30;0.77;;;20.20;99.90;;;;;;4982836;28;20516;-57
2022/07/27 09:59:27;;;;;;;2.80;0.80;;;20.40;99.90;;;;;;4998937;28;20050;-57
2022/07/27 10:01:53;;;;;;;4.72;0.93;;;20.60;99.90;;;;;;5000690;28;20471;-56
2022/07/27 10:04:19;;;;;;;3.42;0.90;;;20.70;99.90;;;;;;4981702;28;20045;-56
2022/07/27 10:06:46;;;;;;;2.78;1.10;;;20.90;99.90;;;;;;5004917;28;20045;-57
2022/07/27 10:09:11;;;;;;;5.65;0.75;;;20.40;99.90;;;;;;5007289;28;20428;-57
2022/07/27 10:11:38;;;;;;;3.55;0.85;;;20.60;99.90;;;;;;4999753;28;20058;-57
2022/07/27 10:14:04;;;;;;;4.97;1.10;;;20.40;99.90;;;;;;4999177;28;20451;-57
2022/07/27 10:16:33;;;;;;;4.13;0.93;;;20.10;99.90;;;;;;4982089;28;20050;-56
2022/07/27 10:19:05;;;;;;;2.50;0.60;;;20.30;99.90;;;;;;4982270;28;20408;-57
2022/07/27 10:21:32;;;;;;;2.45;0.68;;;20.20;99.90;;;;;;4981264;28;20053;-57
2022/07/27 10:24:00;;;;;;;3.97;0.80;;;20.50;99.90;;;;;;4999868;28;20044;-57
2022/07/27 10:26:27;;;;;;;3.08;0.75;;;20.40;99.90;;;;;;4999735;28;20147;-57
2022/07/27 10:28:56;;;;;;;3.65;0.75;;;20.50;99.90;;;;;;4981078;28;20661;-57
2022/07/27 10:31:30;;;;;;;2.05;0.75;;;20.50;99.90;;;;;;4981445;28;20725;-57
2022/07/27 10:34:01;;;;;;;2.65;0.90;;;20.40;99.90;;;;;;4999699;28;20495;-56
2022/07/27 10:36:29;;;;;;;5.40;0.60;;;20.50;99.90;;;;;;4981210;28;20481;-57
2022/07/27 10:39:00;;;;;;;2.63;0.80;;;20.50;99.90;;;;;;4999960;28;20038;-56
2022/07/27 10:41:28;;;;;;;5.10;0.85;;;20.50;99.90;;;;;;4981863;28;20050;-66
2022/07/27 10:44:26;;;;;;;4.68;0.80;;;20.90;99.90;;;;;;4998886;28;20037;-65
2022/07/27 10:47:03;;;;;;;5.78;0.80;;;21.20;99.90;;;;;;4982121;28;20396;-66
2022/07/27 10:49:31;;;;;;;5.05;0.80;;;21.30;99.90;;;;;;5000301;28;20046;-67
2022/07/27 10:51:57;;;;;;;3.38;0.88;;;21.70;99.90;;;;;;5003071;28;20049;-66
2022/07/27 10:54:34;;;;;;;4.78;0.70;;;21.90;99.90;;;;;;5003011;28;20042;-66
2022/07/27 10:57:01;;;;;;;7.38;1.00;;;22.00;99.90;;;;;;5001850;28;20096;-66
2022/07/27 10:59:38;;;;;;;2.88;0.80;;;22.30;99.90;;;;;;5002929;28;20100;-66
2022/07/27 11:02:12;;;;;;;1.88;0.75;;;22.10;99.90;;;;;;5003116;28;20093;-66
2022/07/27 11:04:48;;;;;;;2.70;0.70;;;22.30;99.90;;;;;;5001823;28;20045;-67
2022/07/27 11:07:19;;;;;;;3.30;0.70;;;22.20;99.90;;;;;;5011361;28;20107;-66
2022/07/27 11:09:46;;;;;;;4.28;0.77;;;21.60;99.90;;;;;;5005429;28;20052;-60
2022/07/27 11:12:12;;;;;;;2.55;0.88;;;22.00;99.90;;;;;;5001690;28;20049;-66
2022/07/27 11:14:47;;;;;;;2.97;0.70;;;22.10;99.90;;;;;;5002860;28;20456;-67
2022/07/27 11:17:15;;;;;;;5.63;1.05;;;22.00;99.90;;;;;;4985600;28;20050;-66
2022/07/27 11:19:41;;;;;;;3.67;0.75;;;21.80;99.90;;;;;;4984740;28;20710;-67
2022/07/27 11:22:07;;;;;;;2.58;0.70;;;21.80;99.90;;;;;;5002760;28;20041;-66
2022/07/27 11:24:34;;;;;;;2.25;0.65;;;21.50;99.90;;;;;;4984963;28;20071;-67
2022/07/27 11:27:00;;;;;;;3.80;0.80;;;22.10;99.90;;;;;;4984206;28;20147;-67
2022/07/27 11:29:26;;;;;;;2.47;0.90;;;22.10;99.90;;;;;;4984352;28;20497;-67
2022/07/27 11:31:54;;;;;;;4.05;0.93;;;22.30;99.90;;;;;;5002158;28;20544;-67
2022/07/27 11:34:33;;;;;;;2.33;0.77;;;22.50;99.90;;;;;;5002164;28;20049;-67
2022/07/27 11:37:02;;;;;;;2.90;0.85;;;22.80;99.90;;;;;;5001724;28;20552;-67
2022/07/27 11:39:32;;;;;;;3.50;1.10;;;22.50;99.90;;;;;;5002064;28;20046;-67
2022/07/27 11:42:00;;;;;;;3.55;0.70;;;22.20;99.90;;;;;;5001127;28;20124;-66
2022/07/27 11:44:27;;;;;;;2.38;0.77;;;21.90;99.90;;;;;;5001585;28;20131;-67
2022/07/27 11:46:54;;;;;;;2.60;0.70;;;22.10;99.90;;;;;;5002355;28;20034;-67
2022/07/27 11:49:28;;;;;;;3.25;1.00;;;22.00;99.90;;;;;;4984256;28;20049;-57
2022/07/27 11:51:59;;;;;;;2.50;0.70;;;21.80;99.90;;;;;;5001243;28;20507;-56
2022/07/27 11:54:37;;;;;;;2.90;1.02;;;21.70;99.90;;;;;;4984185;28;20046;-57
2022/07/27 11:57:15;;;;;;;4.32;0.90;;;21.60;99.90;;;;;;5001416;28;20038;-55
2022/07/27 11:59:42;;;;;;;2.47;0.70;;;22.10;99.90;;;;;;5002512;28;20054;-57
2022/07/27 12:02:16;;;;;;;2.80;0.90;;;22.80;99.90;;;;;;5001469;28;20153;-58
2022/07/27 12:04:50;;;;;;;3.22;0.80;;;22.00;99.90;;;;;;5002647;28;20066;-57
2022/07/27 12:07:30;;;;;;;3.80;0.80;;;21.70;99.90;;;;;;5010422;28;20052;-59
2022/07/27 12:09:58;;;;;;;2.78;0.90;;;21.60;99.90;;;;;;5002390;28;20129;-56
2022/07/27 12:12:33;;;;;;;2.53;1.00;;;21.50;99.90;;;;;;4999935;28;20062;-58
2022/07/27 12:15:03;;;;;;;4.65;1.00;;;21.10;99.90;;;;;;5001827;28;20060;-60
2022/07/27 12:17:29;;;;;;;4.28;0.82;;;21.10;99.90;;;;;;5001184;28;20045;-58
2022/07/27 12:20:09;;;;;;;4.35;0.82;;;21.20;99.90;;;;;;5001203;28;20402;-58
2022/07/27 12:22:40;;;;;;;5.35;1.00;;;21.10;99.90;;;;;;5001066;28;20065;-58
2022/07/27 12:25:16;;;;;;;4.55;1.17;;;21.60;99.90;;;;;;4983868;28;20046;-58
2022/07/27 12:28:07;;;;;;;6.18;1.60;;;21.70;99.90;;;;;;5001457;28;20070;-58
2022/07/27 12:30:45;;;;;;;9.85;1.10;;;21.90;99.90;;;;;;4984148;28;20148;-58
2022/07/27 12:33:28;;;;;;;7.32;1.27;;;21.40;99.90;;;;;;4983924;28;20045;-58
2022/07/27 12:35:55;;;;;;;3.75;1.25;;;21.40;99.90;;;;;;5001625;28;20057;-58
2022/07/27 12:38:22;;;;;;;5.50;0.95;;;21.50;99.90;;;;;;5000771;28;20570;-57
2022/07/27 12:40:55;;;;;;;3.42;1.25;;;21.60;99.90;;;;;;5000884;28;20045;-58
2022/07/27 12:43:24;;;;;;;3.10;1.00;;;21.50;99.90;;;;;;5000334;28;20457;-58
2022/07/27 12:45:53;;;;;;;6.30;1.40;;;21.50;99.90;;;;;;5000798;28;20136;-59
2022/07/27 12:48:24;;;;;;;6.70;1.23;;;21.50;99.90;;;;;;4983276;28;20057;-58
2022/07/27 12:51:01;;;;;;;5.78;1.05;;;21.30;99.90;;;;;;5001336;28;20041;-59
2022/07/27 12:53:28;;;;;;;6.70;1.38;;;21.40;99.90;;;;;;5000453;28;20042;-59